createdAt,value
2018-05-31T00:01:07.114Z,17.50
2018-05-31T00:03:34.572Z,18.00
2018-05-31T00:06:02.035Z,14.37
2018-05-31T00:08:29.506Z,14.10
2018-05-31T00:10:56.968Z,14.47
2018-05-31T00:13:24.443Z,13.10
2018-05-31T00:15:51.920Z,13.00
2018-05-31T00:18:19.377Z,13.03
2018-05-31T00:20:47.607Z,12.70
2018-05-31T00:23:15.080Z,12.97
2018-05-31T00:25:42.544Z,12.00
2018-05-31T00:28:09.991Z,13.00
2018-05-31T00:30:38.232Z,13.17
2018-05-31T00:33:05.688Z,13.00
2018-05-31T00:35:33.170Z,12.77
2018-05-31T00:38:00.628Z,13.27
2018-05-31T00:40:28.100Z,11.97
2018-05-31T00:42:56.335Z,13.57
2018-05-31T00:45:23.811Z,12.50
2018-05-31T00:47:52.028Z,12.70
2018-05-31T00:50:20.276Z,13.27
2018-05-31T00:52:47.732Z,11.83
2018-05-31T00:55:15.187Z,11.80
2018-05-31T00:57:42.648Z,12.73
2018-05-31T01:00:11.627Z,12.70
2018-05-31T01:02:39.857Z,12.57
2018-05-31T01:05:07.325Z,13.07
2018-05-31T01:07:34.788Z,12.97
2018-05-31T01:10:02.259Z,12.20
2018-05-31T01:12:29.743Z,11.13
2018-05-31T01:14:57.198Z,11.23
2018-05-31T01:17:24.673Z,11.23
2018-05-31T01:19:52.921Z,10.90
2018-05-31T01:22:20.402Z,11.13
2018-05-31T01:24:47.864Z,11.30
2018-05-31T01:27:15.336Z,11.90
2018-05-31T01:29:43.562Z,11.20
2018-05-31T01:32:11.037Z,11.40
2018-05-31T01:34:38.500Z,12.40
2018-05-31T01:37:05.973Z,9.90
2018-05-31T01:39:33.419Z,9.33
2018-05-31T01:42:00.880Z,11.10
2018-05-31T01:44:28.355Z,10.10
2018-05-31T01:46:56.595Z,9.73
2018-05-31T01:49:24.052Z,10.20
2018-05-31T01:51:51.524Z,10.30
2018-05-31T01:54:18.981Z,10.10
2018-05-31T01:56:46.504Z,10.53
2018-05-31T01:59:13.972Z,11.17
2018-05-31T02:01:41.452Z,10.90
2018-05-31T02:04:08.907Z,10.10
2018-05-31T02:06:36.369Z,10.80
2018-05-31T02:09:03.828Z,11.73
2018-05-31T02:11:31.288Z,10.50
2018-05-31T02:13:58.742Z,10.90
2018-05-31T02:16:26.211Z,13.97
2018-05-31T02:18:53.677Z,11.47
2018-05-31T02:21:21.140Z,11.20
2018-05-31T02:23:49.356Z,12.10
2018-05-31T02:26:18.384Z,11.80
2018-05-31T02:28:45.844Z,11.70
2018-05-31T02:31:13.316Z,11.00
2018-05-31T02:33:41.547Z,11.53
2018-05-31T02:36:09.020Z,11.03
2018-05-31T02:38:37.268Z,11.60
2018-05-31T02:41:04.740Z,11.97
2018-05-31T02:43:32.201Z,11.57
2018-05-31T02:45:59.667Z,10.73
2018-05-31T02:48:27.137Z,12.03
2018-05-31T02:50:54.606Z,11.30
2018-05-31T02:53:23.578Z,11.73
2018-05-31T02:55:51.044Z,11.77
2018-05-31T02:58:18.508Z,11.67
2018-05-31T03:00:45.977Z,12.50
2018-05-31T03:03:13.432Z,11.80
2018-05-31T03:05:40.893Z,11.97
2018-05-31T03:08:08.369Z,11.80
2018-05-31T03:10:36.612Z,11.83
2018-05-31T03:13:04.857Z,11.80
2018-05-31T03:15:32.328Z,12.93
2018-05-31T03:17:59.800Z,11.90
2018-05-31T03:20:27.255Z,12.17
2018-05-31T03:22:54.745Z,11.27
2018-05-31T03:25:22.968Z,11.63
2018-05-31T03:27:50.447Z,11.70
2018-05-31T03:30:17.916Z,11.70
2018-05-31T03:32:45.372Z,11.50
2018-05-31T03:35:12.832Z,12.53
2018-05-31T03:37:40.302Z,12.50
2018-05-31T03:40:08.544Z,11.87
2018-05-31T03:42:36.012Z,12.13
2018-05-31T03:45:03.470Z,12.10
2018-05-31T03:47:30.971Z,12.60
2018-05-31T03:49:58.406Z,12.53
2018-05-31T03:52:25.867Z,12.53
2018-05-31T03:54:54.122Z,12.13
2018-05-31T03:57:21.600Z,12.73
2018-05-31T03:59:49.051Z,12.83
2018-05-31T04:02:16.520Z,12.67
2018-05-31T04:04:44.762Z,13.53
2018-05-31T04:07:12.224Z,12.40
2018-05-31T04:09:39.688Z,13.10
2018-05-31T04:12:07.985Z,12.97
2018-05-31T04:14:35.441Z,13.03
2018-05-31T04:17:03.696Z,13.37
2018-05-31T04:19:31.160Z,12.37
2018-05-31T04:21:58.624Z,13.37
2018-05-31T04:24:26.077Z,13.03
2018-05-31T04:26:53.540Z,13.60
2018-05-31T04:29:20.993Z,16.70
2018-05-31T04:31:48.465Z,20.73
2018-05-31T04:34:16.687Z,22.67
2018-05-31T04:36:44.174Z,20.57
2018-05-31T04:39:12.396Z,19.53
2018-05-31T04:41:39.858Z,19.00
2018-05-31T04:44:07.316Z,18.10
2018-05-31T04:46:34.772Z,19.57
2018-05-31T04:49:02.232Z,17.50
2018-05-31T04:51:29.704Z,18.10
2018-05-31T04:53:57.172Z,17.67
2018-05-31T04:56:25.392Z,16.23
2018-05-31T04:58:53.644Z,16.03
2018-05-31T05:01:21.109Z,17.93
2018-05-31T05:03:48.573Z,20.40
2018-05-31T05:06:16.032Z,21.23
2018-05-31T05:08:45.012Z,20.10
2018-05-31T05:11:12.464Z,19.10
2018-05-31T05:13:39.982Z,18.57
2018-05-31T05:16:07.436Z,17.80
2018-05-31T05:18:34.945Z,16.20
2018-05-31T05:21:02.400Z,16.07
2018-05-31T05:23:29.870Z,13.63
2018-05-31T05:25:57.327Z,14.63
2018-05-31T05:28:24.788Z,14.07
2018-05-31T05:30:53.012Z,13.60
2018-05-31T05:33:20.503Z,13.60
2018-05-31T05:35:47.962Z,12.40
2018-05-31T05:38:15.432Z,13.10
2018-05-31T05:40:42.904Z,13.17
2018-05-31T05:43:11.144Z,15.00
2018-05-31T05:45:38.619Z,15.90
2018-05-31T05:48:06.090Z,16.00
2018-05-31T05:50:34.338Z,15.00
2018-05-31T05:53:01.804Z,15.10
2018-05-31T05:55:29.259Z,13.97
2018-05-31T05:57:56.720Z,13.97
2018-05-31T06:00:24.176Z,14.07
2018-05-31T06:02:51.648Z,13.67
2018-05-31T06:05:19.119Z,13.47
2018-05-31T06:07:47.355Z,13.03
2018-05-31T06:10:14.852Z,12.83
2018-05-31T06:12:43.066Z,12.00
2018-05-31T06:15:10.537Z,12.30
2018-05-31T06:17:38.195Z,11.37
2018-05-31T06:20:05.682Z,12.13
2018-05-31T06:22:33.137Z,12.23
2018-05-31T06:25:00.604Z,11.47
2018-05-31T06:27:28.065Z,11.27
2018-05-31T06:29:55.698Z,10.80
2018-05-31T06:32:23.169Z,11.67
2018-05-31T06:34:50.648Z,13.03
2018-05-31T06:37:18.134Z,12.20
2018-05-31T06:39:45.653Z,13.20
2018-05-31T06:42:13.112Z,12.17
2018-05-31T06:44:40.568Z,13.20
2018-05-31T06:47:08.020Z,12.50
2018-05-31T06:49:36.248Z,12.30
2018-05-31T06:52:03.705Z,11.63
2018-05-31T06:54:31.933Z,11.50
2018-05-31T06:56:59.391Z,13.20
2018-05-31T06:59:26.848Z,12.90
2018-05-31T07:01:54.311Z,12.00
2018-05-31T07:04:21.772Z,12.07
2018-05-31T07:06:50.001Z,10.40
2018-05-31T07:09:17.468Z,11.90
2018-05-31T07:11:44.950Z,11.50
2018-05-31T07:14:13.176Z,11.90
2018-05-31T07:16:40.632Z,11.10
2018-05-31T07:19:08.972Z,11.60
2018-05-31T07:21:36.432Z,12.53
2018-05-31T07:24:03.892Z,11.80
2018-05-31T07:26:32.136Z,11.20
2018-05-31T07:28:59.604Z,11.30
2018-05-31T07:31:27.064Z,10.90
2018-05-31T07:33:54.537Z,11.70
2018-05-31T07:36:21.997Z,11.97
2018-05-31T07:38:49.456Z,11.53
2018-05-31T07:41:17.688Z,11.30
2018-05-31T07:43:45.167Z,10.70
2018-05-31T07:46:12.624Z,10.10
2018-05-31T07:48:40.091Z,8.73
2018-05-31T07:51:07.559Z,9.80
2018-05-31T07:53:35.037Z,9.90
2018-05-31T07:56:03.272Z,9.03
2018-05-31T07:58:30.735Z,8.50
2018-05-31T08:00:58.981Z,9.07
2018-05-31T08:03:26.456Z,8.63
2018-05-31T08:05:53.925Z,9.03
2018-05-31T08:08:21.375Z,9.90
2018-05-31T08:10:48.828Z,8.60
2018-05-31T08:13:16.278Z,8.73
2018-05-31T08:15:43.740Z,8.30
2018-05-31T08:18:11.201Z,8.20
2018-05-31T08:20:38.670Z,8.50
2018-05-31T08:23:06.124Z,8.10
2018-05-31T08:25:33.584Z,8.90
2018-05-31T08:28:01.034Z,8.70
2018-05-31T08:30:29.259Z,8.67
2018-05-31T08:32:57.497Z,7.97
2018-05-31T08:35:24.958Z,8.70
2018-05-31T08:37:52.417Z,7.47
2018-05-31T08:40:20.636Z,7.43
2018-05-31T08:42:48.857Z,7.67
2018-05-31T08:45:16.324Z,7.43
2018-05-31T08:47:43.779Z,8.27
2018-05-31T08:50:11.240Z,8.07
2018-05-31T08:52:39.472Z,7.00
2018-05-31T08:55:06.944Z,7.43
2018-05-31T08:57:34.400Z,6.80
2018-05-31T09:00:01.869Z,7.47
2018-05-31T09:02:29.323Z,6.87
2018-05-31T09:04:56.812Z,6.53
2018-05-31T09:07:24.256Z,7.80
2018-05-31T09:09:51.708Z,6.30
2018-05-31T09:12:19.164Z,6.80
2018-05-31T09:14:46.624Z,6.67
2018-05-31T09:17:14.087Z,6.63
2018-05-31T09:19:41.549Z,6.83
2018-05-31T09:22:09.008Z,5.93
2018-05-31T09:24:36.471Z,6.00
2018-05-31T09:27:04.679Z,7.00
2018-05-31T09:29:32.904Z,6.60
2018-05-31T09:32:00.353Z,5.93
2018-05-31T09:34:27.824Z,6.77
2018-05-31T09:36:55.276Z,6.30
2018-05-31T09:39:22.732Z,6.00
2018-05-31T09:41:50.221Z,5.50
2018-05-31T09:44:17.672Z,6.37
2018-05-31T09:46:45.127Z,6.83
2018-05-31T09:49:12.586Z,6.43
2018-05-31T09:51:40.052Z,6.57
2018-05-31T09:54:07.529Z,5.87
2018-05-31T09:56:35.761Z,5.73
2018-05-31T09:59:03.225Z,5.70
2018-05-31T10:01:30.683Z,6.10
2018-05-31T10:03:58.129Z,6.40
2018-05-31T10:06:25.584Z,6.07
2018-05-31T10:08:53.032Z,6.10
2018-05-31T10:11:20.502Z,5.80
2018-05-31T10:13:47.956Z,6.67
2018-05-31T10:16:15.412Z,5.67
2018-05-31T10:18:42.867Z,6.10
2018-05-31T10:21:10.333Z,6.00
2018-05-31T10:23:37.777Z,5.40
2018-05-31T10:26:05.245Z,6.30
2018-05-31T10:28:32.692Z,7.60
2018-05-31T10:31:00.156Z,6.50
2018-05-31T10:33:27.614Z,5.80
2018-05-31T10:35:55.080Z,6.10
2018-05-31T10:38:22.531Z,5.50
2018-05-31T10:40:50.757Z,5.30
2018-05-31T10:43:18.228Z,5.10
2018-05-31T10:45:45.696Z,5.20
2018-05-31T10:48:13.145Z,5.40
2018-05-31T10:50:40.612Z,5.57
2018-05-31T10:53:08.068Z,5.60
2018-05-31T10:55:35.532Z,5.60
2018-05-31T10:58:02.984Z,5.13
2018-05-31T11:00:30.440Z,5.20
2018-05-31T11:02:57.898Z,5.43
2018-05-31T11:05:25.360Z,5.67
2018-05-31T11:07:52.813Z,6.10
2018-05-31T11:10:20.276Z,6.13
2018-05-31T11:12:47.724Z,6.00
2018-05-31T11:15:15.171Z,5.10
2018-05-31T11:17:42.628Z,5.73
2018-05-31T11:20:10.868Z,5.43
2018-05-31T11:22:38.332Z,5.50
2018-05-31T11:25:07.304Z,5.73
2018-05-31T11:27:34.771Z,5.27
2018-05-31T11:30:02.233Z,5.40
2018-05-31T11:32:29.735Z,5.33
2018-05-31T11:34:57.183Z,4.70
2018-05-31T11:37:24.632Z,5.47
2018-05-31T11:39:52.088Z,5.30
2018-05-31T11:42:20.312Z,5.30
2018-05-31T11:44:47.772Z,4.57
2018-05-31T11:47:15.232Z,6.00
2018-05-31T11:49:42.687Z,6.20
2018-05-31T11:52:10.169Z,5.67
2018-05-31T11:54:37.617Z,5.13
2018-05-31T11:57:05.839Z,5.07
2018-05-31T11:59:34.084Z,5.10
2018-05-31T12:02:01.541Z,6.27
2018-05-31T12:04:29.100Z,5.50
2018-05-31T12:06:57.350Z,5.60
2018-05-31T12:09:24.808Z,5.50
2018-05-31T12:11:52.272Z,4.90
2018-05-31T12:14:19.720Z,5.70
2018-05-31T12:16:47.176Z,5.27
2018-05-31T12:19:14.631Z,5.40
2018-05-31T12:21:42.087Z,4.90
2018-05-31T12:24:09.546Z,5.43
2018-05-31T12:26:37.006Z,6.00
2018-05-31T12:29:04.460Z,5.17
2018-05-31T12:31:31.923Z,4.97
2018-05-31T12:33:59.380Z,5.40
2018-05-31T12:36:26.856Z,4.90
2018-05-31T12:38:54.312Z,4.60
2018-05-31T12:41:21.768Z,5.70
2018-05-31T12:43:49.252Z,5.40
2018-05-31T12:46:16.716Z,5.37
2018-05-31T12:48:44.941Z,5.40
2018-05-31T12:51:12.401Z,5.73
2018-05-31T12:53:39.890Z,4.67
2018-05-31T12:56:07.317Z,5.50
2018-05-31T12:58:34.772Z,5.20
2018-05-31T13:01:02.232Z,4.80
2018-05-31T13:03:29.686Z,5.77
2018-05-31T13:05:57.145Z,5.00
2018-05-31T13:08:24.746Z,5.80
2018-05-31T13:10:52.188Z,6.10
2018-05-31T13:13:19.665Z,5.57
2018-05-31T13:15:47.105Z,5.50
2018-05-31T13:18:14.584Z,5.10
2018-05-31T13:20:42.816Z,4.90
2018-05-31T13:23:10.275Z,5.10
2018-05-31T13:25:37.728Z,4.53
2018-05-31T13:28:05.184Z,4.67
2018-05-31T13:30:32.642Z,5.77
2018-05-31T13:33:00.101Z,5.20
2018-05-31T13:35:28.476Z,5.30
2018-05-31T13:37:55.943Z,4.90
2018-05-31T13:40:23.399Z,5.23
2018-05-31T13:42:50.867Z,5.40
2018-05-31T13:45:18.308Z,4.90
2018-05-31T13:47:45.770Z,5.20
2018-05-31T13:50:13.988Z,5.50
2018-05-31T13:52:42.220Z,5.80
2018-05-31T13:55:09.676Z,5.63
2018-05-31T13:57:37.136Z,8.57
2018-05-31T14:00:04.589Z,9.50
2018-05-31T14:02:32.059Z,9.33
2018-05-31T14:04:59.529Z,8.67
2018-05-31T14:07:26.983Z,8.57
2018-05-31T14:09:54.431Z,8.50
2018-05-31T14:12:21.896Z,7.80
2018-05-31T14:14:49.352Z,8.00
2018-05-31T14:17:16.816Z,7.40
2018-05-31T14:19:44.280Z,7.10
2018-05-31T14:22:11.750Z,7.40
2018-05-31T14:24:39.195Z,6.77
2018-05-31T14:27:06.652Z,6.70
2018-05-31T14:29:34.100Z,7.00
2018-05-31T14:32:01.684Z,6.70
2018-05-31T14:34:29.139Z,7.50
2018-05-31T14:36:56.600Z,7.20
2018-05-31T14:39:24.077Z,11.40
2018-05-31T14:41:52.336Z,10.23
2018-05-31T14:44:19.797Z,10.10
2018-05-31T14:46:47.253Z,9.47
2018-05-31T14:49:14.709Z,9.30
2018-05-31T14:51:42.173Z,11.90
2018-05-31T14:54:09.939Z,10.80
2018-05-31T14:56:38.160Z,8.77
2018-05-31T14:59:05.620Z,9.00
2018-05-31T15:01:33.074Z,10.47
2018-05-31T15:04:00.540Z,11.67
2018-05-31T15:06:27.992Z,12.97
2018-05-31T15:08:55.452Z,13.47
2018-05-31T15:11:22.914Z,13.30
2018-05-31T15:13:50.384Z,10.87
2018-05-31T15:16:17.831Z,9.67
2018-05-31T15:18:45.291Z,9.03
2018-05-31T15:21:12.747Z,11.57
2018-05-31T15:23:40.208Z,11.93
2018-05-31T15:26:07.664Z,9.77
2018-05-31T15:28:35.128Z,10.40
2018-05-31T15:31:02.608Z,17.03
2018-05-31T15:33:30.073Z,25.27
2018-05-31T15:35:57.521Z,21.97
2018-05-31T15:38:24.993Z,17.97
2018-05-31T15:40:52.444Z,14.47
2018-05-31T15:43:19.911Z,11.93
2018-05-31T15:45:48.133Z,11.10
2018-05-31T15:48:15.598Z,16.50
2018-05-31T15:50:43.054Z,28.17
2018-05-31T15:53:10.512Z,26.97
2018-05-31T15:55:37.961Z,20.27
2018-05-31T15:58:05.424Z,21.63
2018-05-31T16:00:32.880Z,15.40
2018-05-31T16:03:00.355Z,13.80
2018-05-31T16:05:27.801Z,12.17
2018-05-31T16:07:55.261Z,10.80
2018-05-31T16:10:22.712Z,10.20
2018-05-31T16:12:50.174Z,10.27
2018-05-31T16:15:17.635Z,11.47
2018-05-31T16:17:45.856Z,10.00
2018-05-31T16:20:14.092Z,9.73
2018-05-31T16:22:41.544Z,9.73
2018-05-31T16:25:09.031Z,9.77
2018-05-31T16:27:36.488Z,10.07
2018-05-31T16:30:03.959Z,10.10
2018-05-31T16:32:31.412Z,10.03
2018-05-31T16:34:58.905Z,10.60
2018-05-31T16:37:27.117Z,10.40
2018-05-31T16:39:54.593Z,11.03
2018-05-31T16:42:22.208Z,10.40
2018-05-31T16:44:49.681Z,9.90
2018-05-31T16:47:17.148Z,10.97
2018-05-31T16:49:44.623Z,12.60
2018-05-31T16:52:12.086Z,15.53
2018-05-31T16:54:40.326Z,22.87
2018-05-31T16:57:07.784Z,22.73
2018-05-31T16:59:35.245Z,19.30
2018-05-31T17:02:02.726Z,24.80
2018-05-31T17:04:30.192Z,23.13
2018-05-31T17:06:57.648Z,27.60
2018-05-31T17:09:25.121Z,23.80
2018-05-31T17:11:52.588Z,18.77
2018-05-31T17:14:20.830Z,16.80
2018-05-31T17:16:48.271Z,14.33
2018-05-31T17:19:15.837Z,12.37
2018-05-31T17:21:43.328Z,11.00
2018-05-31T17:24:10.794Z,13.00
2018-05-31T17:26:38.277Z,12.43
2018-05-31T17:29:05.759Z,12.87
2018-05-31T17:31:33.209Z,13.83
2018-05-31T17:34:00.668Z,13.13
2018-05-31T17:36:31.875Z,13.53
2018-05-31T17:39:00.120Z,12.23
2018-05-31T17:41:27.596Z,13.63
2018-05-31T17:43:55.856Z,12.97
2018-05-31T17:46:23.427Z,13.63
2018-05-31T17:48:51.672Z,15.03
2018-05-31T17:51:19.130Z,14.40
2018-05-31T17:53:46.604Z,12.90
2018-05-31T17:56:14.089Z,12.80
2018-05-31T17:58:42.323Z,13.50
2018-05-31T18:01:09.871Z,14.10
2018-05-31T18:03:37.376Z,13.27
2018-05-31T18:06:04.944Z,12.43
2018-05-31T18:08:33.249Z,12.00
2018-05-31T18:11:00.820Z,12.50
2018-05-31T18:13:28.305Z,13.07
2018-05-31T18:15:55.790Z,12.87
2018-05-31T18:18:23.328Z,14.40
2018-05-31T18:20:50.881Z,12.80
2018-05-31T18:23:18.426Z,12.03
2018-05-31T18:25:46.797Z,12.57
2018-05-31T18:28:14.304Z,12.43
2018-05-31T18:30:41.770Z,11.87
2018-05-31T18:33:09.234Z,12.33
2018-05-31T18:35:36.712Z,13.40
2018-05-31T18:38:04.215Z,12.33
2018-05-31T18:40:31.678Z,15.47
2018-05-31T18:43:00.087Z,14.90
2018-05-31T18:45:28.329Z,15.70
2018-05-31T18:47:55.792Z,16.97
2018-05-31T18:50:23.284Z,15.63
2018-05-31T18:52:51.527Z,15.77
2018-05-31T18:55:19.122Z,17.20
2018-05-31T18:57:47.467Z,16.80
2018-05-31T19:00:15.911Z,15.17
2018-05-31T19:02:43.376Z,15.40
2018-05-31T19:05:10.861Z,16.03
2018-05-31T19:07:38.330Z,14.93
2018-05-31T19:10:05.800Z,16.20
2018-05-31T19:12:39.658Z,13.97
2018-05-31T19:15:08.015Z,17.00
2018-05-31T19:17:35.477Z,19.87
2018-05-31T19:20:02.980Z,15.47
2018-05-31T19:22:30.458Z,15.70
2018-05-31T19:25:05.093Z,17.63
2018-05-31T19:27:33.341Z,15.83
2018-05-31T19:30:08.013Z,16.37
2018-05-31T19:32:35.474Z,16.00
2018-05-31T19:35:02.928Z,13.80
2018-05-31T19:37:30.387Z,22.17
2018-05-31T19:39:57.879Z,52.10
2018-05-31T19:42:31.064Z,61.43
2018-05-31T19:44:58.544Z,62.73
2018-05-31T19:47:26.017Z,27.87
2018-05-31T19:49:54.975Z,52.03
2018-05-31T19:52:28.800Z,41.80
2018-05-31T19:54:56.255Z,28.40
2018-05-31T19:57:23.732Z,20.83
2018-05-31T19:59:56.752Z,19.70
2018-05-31T20:02:29.908Z,18.23
2018-05-31T20:04:57.437Z,18.67
2018-05-31T20:07:24.889Z,16.90
2018-05-31T20:09:53.104Z,18.50
2018-05-31T20:12:21.258Z,19.37
2018-05-31T20:14:48.027Z,19.53
2018-05-31T20:17:15.495Z,18.70
2018-05-31T20:19:43.730Z,19.47
2018-05-31T20:22:11.201Z,19.50
2018-05-31T20:24:38.657Z,17.90
2018-05-31T20:27:06.136Z,18.50
2018-05-31T20:29:33.592Z,14.57
2018-05-31T20:32:01.069Z,12.73
2018-05-31T20:34:29.280Z,13.37
2018-05-31T20:36:56.756Z,14.40
2018-05-31T20:39:24.240Z,15.00
2018-05-31T20:41:51.718Z,14.03
2018-05-31T20:44:19.948Z,15.17
2018-05-31T20:46:47.432Z,14.77
2018-05-31T20:49:14.891Z,16.53
2018-05-31T20:51:42.358Z,12.43
2018-05-31T20:54:10.611Z,15.20
2018-05-31T20:56:38.079Z,11.90
2018-05-31T20:59:05.532Z,15.30
2018-05-31T21:01:33.009Z,14.93
2018-05-31T21:04:01.244Z,15.30
2018-05-31T21:06:28.747Z,14.57
2018-05-31T21:08:56.956Z,13.13
2018-05-31T21:11:24.430Z,12.03
2018-05-31T21:13:52.056Z,14.77
2018-05-31T21:16:19.560Z,14.10
2018-05-31T21:18:47.013Z,15.73
2018-05-31T21:21:14.532Z,17.33
2018-05-31T21:23:42.062Z,13.30
2018-05-31T21:26:09.535Z,17.17
2018-05-31T21:28:37.768Z,14.13
2018-05-31T21:31:05.999Z,17.50
2018-05-31T21:33:34.219Z,13.40
2018-05-31T21:36:01.684Z,16.53
2018-05-31T21:38:29.146Z,17.03
2018-05-31T21:40:56.617Z,15.87
2018-05-31T21:43:24.084Z,17.90
2018-05-31T21:45:52.301Z,17.57
2018-05-31T21:48:20.640Z,17.50
2018-05-31T21:50:48.115Z,19.60
2018-05-31T21:53:15.622Z,14.50
2018-05-31T21:55:43.844Z,17.20
2018-05-31T21:58:12.163Z,17.20
2018-05-31T22:00:45.354Z,13.67
2018-05-31T22:03:12.819Z,13.20
2018-05-31T22:05:40.400Z,14.90
2018-05-31T22:08:08.659Z,15.43
2018-05-31T22:10:36.137Z,14.70
2018-05-31T22:13:03.690Z,12.10
2018-05-31T22:15:31.232Z,12.67
2018-05-31T22:17:58.709Z,15.20
2018-05-31T22:20:26.947Z,15.67
2018-05-31T22:22:54.412Z,15.97
2018-05-31T22:25:22.648Z,15.90
2018-05-31T22:27:50.875Z,15.87
2018-05-31T22:30:19.114Z,12.83
2018-05-31T22:32:46.573Z,12.63
2018-05-31T22:35:14.811Z,15.73
2018-05-31T22:37:43.049Z,15.23
2018-05-31T22:40:10.515Z,16.20
2018-05-31T22:42:38.001Z,13.90
2018-05-31T22:45:05.457Z,16.10
2018-05-31T22:47:32.936Z,12.20
2018-05-31T22:50:01.266Z,10.77
2018-05-31T22:52:28.869Z,13.17
2018-05-31T22:54:57.216Z,13.40
2018-05-31T22:57:24.687Z,12.37
2018-05-31T22:59:52.143Z,13.93
2018-05-31T23:02:19.675Z,10.50
2018-05-31T23:04:47.928Z,10.80
2018-05-31T23:07:16.251Z,11.13
2018-05-31T23:09:43.728Z,10.90
2018-05-31T23:12:11.198Z,9.63
2018-05-31T23:14:39.423Z,13.03
2018-05-31T23:17:06.900Z,12.53
2018-05-31T23:19:34.404Z,10.03
2018-05-31T23:22:02.627Z,11.50
2018-05-31T23:24:30.208Z,11.07
2018-05-31T23:26:58.545Z,12.27
2018-05-31T23:29:26.014Z,15.43
2018-05-31T23:31:53.500Z,14.83
2018-05-31T23:34:21.001Z,10.97
2018-05-31T23:36:48.491Z,10.23
2018-05-31T23:39:15.947Z,10.50
2018-05-31T23:41:43.399Z,13.73
2018-05-31T23:44:10.877Z,15.20
2018-05-31T23:46:38.344Z,13.50
2018-05-31T23:49:07.361Z,10.27
2018-05-31T23:51:35.024Z,11.03
2018-05-31T23:54:03.365Z,14.50
2018-05-31T23:56:30.860Z,11.00
2018-05-31T23:58:59.100Z,11.17
